Saint Helens, OR (97051)

9:19 AM PDT on July 26, 2016 (GMT -0700)
Arbor Hill, Sykes Rd. | | Change Station

Elev 200 ft 45.85 °N, 122.85 °W | Updated 3 minutes ago

Overcast
Overcast
63.3 °F
Feels Like 63.3 °F
N
0.0
Wind Variable Wind from WSW
Gusts 0.0 mph

Today
High -- | Low -- °F
--% Chance of Precip.
Yesterday
High -- | Low -- °F
Precip. -- in
Pressure 30.17 in
Visibility 10.0 miles
Clouds Overcast 2200 ft
Dew Point 55 °F
Humidity 75%
Rainfall 0.00 in
Snow Depth Not available.
5:48 AM 8:47 PM
Waning Gibbous, 53% visible
METAR KSPB 261553Z AUTO 33003KT 10SM OVC022 17/12 A3017 RMK AO2 SLP216 T01720117
Pressure 30.17 in
Visibility 10.0 miles
Clouds Overcast 2200 ft
Dew Point 55 °F
Humidity 75%
Rainfall 0.00 in
Snow Depth Not available.
5:48 AM 8:47 PM
Waning Gibbous, 53% visible
METAR KSPB 261553Z AUTO 33003KT 10SM OVC022 17/12 A3017 RMK AO2 SLP216 T01720117

10-Day Weather Forecast

Almanac

Astronomy

Jul. 26, 2016 Rise Set
Actual Time
Civil Twilight
Nautical Twilight
Astronomical Twilight
Moon
Length of Visible Light
Length of Day
Tomorrow will be .
, % of the Moon is Illuminated

Today's Extremes

State Highs State Lows

Community

WunderPhotos

Upload Photos

1,927,625 photos uploaded!

WunderBlog® & News

Nearby

Air Quality

  Air Quality AQ Index Pollutant
Not available.

Snow Depth

Station Depth Elevation

Earthquake Activity

City Distance Mag. Time & Date
Minimum magnitude displayed is 2.5.

Coastal Water Temperatures

Place Temperature

Stations

Nearby Weather Stations

Station Location Temp. Windchill Dew Point Humidity Wind Precip. Elev Updated Type
                   

Watches & Warnings

There are currently no watches in effect.